sensor_id;sensor_type;location;lat;lon;timestamp;pressure;altitude;pressure_sealevel;temperature;humidity
84760;BME280;74983;51.084;11.086;2024-02-21T00:00:28;100633.88;;;7.15;85.38
84760;BME280;74983;51.084;11.086;2024-02-21T00:02:53;100645.75;;;7.19;84.81
84760;BME280;74983;51.084;11.086;2024-02-21T00:05:18;100645.41;;;7.26;84.17
84760;BME280;74983;51.084;11.086;2024-02-21T00:07:43;100633.84;;;7.33;83.94
84760;BME280;74983;51.084;11.086;2024-02-21T00:10:09;100627.50;;;7.22;83.87
84760;BME280;74983;51.084;11.086;2024-02-21T00:12:34;100625.25;;;7.14;83.98
84760;BME280;74983;51.084;11.086;2024-02-21T00:14:59;100619.09;;;7.17;84.35
84760;BME280;74983;51.084;11.086;2024-02-21T00:17:25;100623.03;;;7.25;83.76
84760;BME280;74983;51.084;11.086;2024-02-21T00:19:51;100620.81;;;7.35;83.68
84760;BME280;74983;51.084;11.086;2024-02-21T00:22:16;100626.06;;;7.33;84.15
84760;BME280;74983;51.084;11.086;2024-02-21T00:24:41;100618.75;;;7.41;83.39
84760;BME280;74983;51.084;11.086;2024-02-21T00:27:07;100618.47;;;7.47;83.25
84760;BME280;74983;51.084;11.086;2024-02-21T00:29:32;100615.03;;;7.47;82.76
84760;BME280;74983;51.084;11.086;2024-02-21T00:31:57;100620.13;;;7.48;83.30
84760;BME280;74983;51.084;11.086;2024-02-21T00:34:22;100613.81;;;7.54;83.28
84760;BME280;74983;51.084;11.086;2024-02-21T00:36:47;100609.66;;;7.51;83.00
84760;BME280;74983;51.084;11.086;2024-02-21T00:39:13;100600.84;;;7.37;84.18
84760;BME280;74983;51.084;11.086;2024-02-21T00:41:38;100599.72;;;7.42;83.98
84760;BME280;74983;51.084;11.086;2024-02-21T00:44:03;100591.72;;;7.47;83.45
84760;BME280;74983;51.084;11.086;2024-02-21T00:46:30;100592.56;;;7.47;83.86
84760;BME280;74983;51.084;11.086;2024-02-21T00:48:55;100596.00;;;7.48;83.13
84760;BME280;74983;51.084;11.086;2024-02-21T00:51:21;100582.28;;;7.46;83.98
84760;BME280;74983;51.084;11.086;2024-02-21T00:53:46;100582.91;;;7.32;84.32
84760;BME280;74983;51.084;11.086;2024-02-21T00:56:11;100585.50;;;7.32;84.27
84760;BME280;74983;51.084;11.086;2024-02-21T00:58:37;100579.63;;;7.29;84.95
84760;BME280;74983;51.084;11.086;2024-02-21T01:01:02;100571.31;;;7.22;85.10
84760;BME280;74983;51.084;11.086;2024-02-21T01:03:28;100573.22;;;7.19;85.33
84760;BME280;74983;51.084;11.086;2024-02-21T01:05:53;100581.78;;;7.21;85.59
84760;BME280;74983;51.084;11.086;2024-02-21T01:08:18;100571.94;;;7.27;84.57
84760;BME280;74983;51.084;11.086;2024-02-21T01:10:43;100570.28;;;7.26;84.60
84760;BME280;74983;51.084;11.086;2024-02-21T01:13:09;100569.34;;;7.27;85.05
84760;BME280;74983;51.084;11.086;2024-02-21T01:15:34;100565.94;;;7.27;84.75
84760;BME280;74983;51.084;11.086;2024-02-21T01:17:59;100569.59;;;7.23;84.88
84760;BME280;74983;51.084;11.086;2024-02-21T01:20:24;100568.81;;;7.21;85.19
84760;BME280;74983;51.084;11.086;2024-02-21T01:22:50;100564.34;;;7.24;85.69
84760;BME280;74983;51.084;11.086;2024-02-21T01:25:15;100561.75;;;7.24;86.40
84760;BME280;74983;51.084;11.086;2024-02-21T01:27:41;100563.78;;;7.18;86.91
84760;BME280;74983;51.084;11.086;2024-02-21T01:30:07;100552.81;;;7.13;88.48
84760;BME280;74983;51.084;11.086;2024-02-21T01:32:32;100557.38;;;7.08;87.78
84760;BME280;74983;51.084;11.086;2024-02-21T01:34:57;100544.34;;;7.09;89.42
84760;BME280;74983;51.084;11.086;2024-02-21T01:37:23;100545.94;;;7.12;89.10
84760;BME280;74983;51.084;11.086;2024-02-21T01:39:48;100547.63;;;7.13;89.95
84760;BME280;74983;51.084;11.086;2024-02-21T01:42:14;100548.63;;;7.10;90.12
84760;BME280;74983;51.084;11.086;2024-02-21T01:44:39;100546.19;;;7.07;90.43
84760;BME280;74983;51.084;11.086;2024-02-21T01:47:05;100548.16;;;7.02;90.86
84760;BME280;74983;51.084;11.086;2024-02-21T01:49:30;100551.88;;;6.97;91.93
84760;BME280;74983;51.084;11.086;2024-02-21T01:51:56;100548.50;;;6.95;92.06
84760;BME280;74983;51.084;11.086;2024-02-21T01:54:21;100537.03;;;7.00;90.91
84760;BME280;74983;51.084;11.086;2024-02-21T01:56:47;100538.56;;;7.04;90.83
84760;BME280;74983;51.084;11.086;2024-02-21T01:59:13;100531.84;;;7.00;91.11
84760;BME280;74983;51.084;11.086;2024-02-21T02:01:39;100533.59;;;7.00;90.24
84760;BME280;74983;51.084;11.086;2024-02-21T02:04:05;100538.25;;;7.10;90.65
84760;BME280;74983;51.084;11.086;2024-02-21T02:06:31;100540.91;;;7.09;90.46
84760;BME280;74983;51.084;11.086;2024-02-21T02:08:56;100534.13;;;7.06;90.80
84760;BME280;74983;51.084;11.086;2024-02-21T02:11:22;100537.63;;;7.05;90.83
84760;BME280;74983;51.084;11.086;2024-02-21T02:13:47;100529.88;;;7.05;91.13
84760;BME280;74983;51.084;11.086;2024-02-21T02:16:12;100534.19;;;7.05;91.35
84760;BME280;74983;51.084;11.086;2024-02-21T02:18:37;100528.06;;;7.07;91.64
84760;BME280;74983;51.084;11.086;2024-02-21T02:21:10;100521.13;;;7.08;91.44
84760;BME280;74983;51.084;11.086;2024-02-21T02:23:38;100520.91;;;7.12;91.85
84760;BME280;74983;51.084;11.086;2024-02-21T02:26:03;100519.16;;;7.13;91.79
84760;BME280;74983;51.084;11.086;2024-02-21T02:28:29;100524.00;;;7.19;90.81
84760;BME280;74983;51.084;11.086;2024-02-21T02:30:54;100515.19;;;7.23;90.60
84760;BME280;74983;51.084;11.086;2024-02-21T02:33:19;100520.22;;;7.26;89.99
84760;BME280;74983;51.084;11.086;2024-02-21T02:35:45;100517.78;;;7.23;90.18
84760;BME280;74983;51.084;11.086;2024-02-21T02:38:11;100518.75;;;7.20;88.71
84760;BME280;74983;51.084;11.086;2024-02-21T02:40:38;100512.44;;;7.26;89.05
84760;BME280;74983;51.084;11.086;2024-02-21T02:43:04;100505.19;;;7.32;87.81
84760;BME280;74983;51.084;11.086;2024-02-21T02:45:29;100497.56;;;7.46;87.16
84760;BME280;74983;51.084;11.086;2024-02-21T02:47:55;100500.78;;;7.51;86.49
84760;BME280;74983;51.084;11.086;2024-02-21T02:50:22;100504.97;;;7.54;87.06
84760;BME280;74983;51.084;11.086;2024-02-21T02:52:47;100496.22;;;7.56;86.33
84760;BME280;74983;51.084;11.086;2024-02-21T02:55:12;100487.50;;;7.57;86.31
84760;BME280;74983;51.084;11.086;2024-02-21T02:57:38;100491.47;;;7.64;86.32
84760;BME280;74983;51.084;11.086;2024-02-21T03:00:04;100495.00;;;7.63;86.28
84760;BME280;74983;51.084;11.086;2024-02-21T03:02:29;100492.91;;;7.70;84.68
84760;BME280;74983;51.084;11.086;2024-02-21T03:04:56;100490.16;;;7.73;85.33
84760;BME280;74983;51.084;11.086;2024-02-21T03:07:21;100474.59;;;7.73;85.09
84760;BME280;74983;51.084;11.086;2024-02-21T03:09:46;100477.44;;;7.68;85.83
84760;BME280;74983;51.084;11.086;2024-02-21T03:12:11;100470.19;;;7.75;85.03
84760;BME280;74983;51.084;11.086;2024-02-21T03:14:37;100468.44;;;7.75;84.88
84760;BME280;74983;51.084;11.086;2024-02-21T03:17:03;100458.97;;;7.74;84.58
84760;BME280;74983;51.084;11.086;2024-02-21T03:19:28;100462.16;;;7.79;85.87
84760;BME280;74983;51.084;11.086;2024-02-21T03:21:54;100451.78;;;7.79;85.34
84760;BME280;74983;51.084;11.086;2024-02-21T03:24:20;100460.06;;;7.70;85.79
84760;BME280;74983;51.084;11.086;2024-02-21T03:26:45;100460.09;;;7.69;85.93
84760;BME280;74983;51.084;11.086;2024-02-21T03:29:15;100453.94;;;7.71;85.04
84760;BME280;74983;51.084;11.086;2024-02-21T03:31:41;100453.63;;;7.77;85.10
84760;BME280;74983;51.084;11.086;2024-02-21T03:34:06;100448.19;;;7.82;85.38
84760;BME280;74983;51.084;11.086;2024-02-21T03:36:32;100454.31;;;7.81;85.27
84760;BME280;74983;51.084;11.086;2024-02-21T03:38:57;100452.63;;;7.80;85.84
84760;BME280;74983;51.084;11.086;2024-02-21T03:41:22;100446.75;;;7.76;85.20
84760;BME280;74983;51.084;11.086;2024-02-21T03:43:48;100440.00;;;7.74;84.99
84760;BME280;74983;51.084;11.086;2024-02-21T03:46:14;100446.25;;;7.70;85.92
84760;BME280;74983;51.084;11.086;2024-02-21T03:48:39;100444.34;;;7.73;86.04
84760;BME280;74983;51.084;11.086;2024-02-21T03:51:04;100438.31;;;7.73;85.59
84760;BME280;74983;51.084;11.086;2024-02-21T03:53:30;100437.31;;;7.75;86.26
84760;BME280;74983;51.084;11.086;2024-02-21T03:55:55;100432.34;;;7.71;86.51
84760;BME280;74983;51.084;11.086;2024-02-21T03:58:21;100430.53;;;7.73;86.29
84760;BME280;74983;51.084;11.086;2024-02-21T04:00:47;100431.28;;;7.75;86.06
84760;BME280;74983;51.084;11.086;2024-02-21T04:03:12;100426.09;;;7.75;86.22
84760;BME280;74983;51.084;11.086;2024-02-21T04:05:38;100426.94;;;7.75;86.38
84760;BME280;74983;51.084;11.086;2024-02-21T04:08:04;100421.00;;;7.73;86.41
84760;BME280;74983;51.084;11.086;2024-02-21T04:10:30;100411.53;;;7.72;85.93
84760;BME280;74983;51.084;11.086;2024-02-21T04:12:55;100408.22;;;7.70;87.02
84760;BME280;74983;51.084;11.086;2024-02-21T04:15:20;100400.84;;;7.78;86.02
84760;BME280;74983;51.084;11.086;2024-02-21T04:17:46;100408.13;;;7.72;86.35
84760;BME280;74983;51.084;11.086;2024-02-21T04:20:15;100409.28;;;7.66;87.00
84760;BME280;74983;51.084;11.086;2024-02-21T04:22:42;100410.34;;;7.62;87.11
84760;BME280;74983;51.084;11.086;2024-02-21T04:25:07;100409.75;;;7.57;87.14
84760;BME280;74983;51.084;11.086;2024-02-21T04:27:33;100405.34;;;7.59;87.21
84760;BME280;74983;51.084;11.086;2024-02-21T04:29:58;100412.09;;;7.62;87.03
84760;BME280;74983;51.084;11.086;2024-02-21T04:32:23;100412.84;;;7.64;86.98
84760;BME280;74983;51.084;11.086;2024-02-21T04:34:49;100406.09;;;7.61;87.02
84760;BME280;74983;51.084;11.086;2024-02-21T04:37:15;100412.94;;;7.62;87.01
84760;BME280;74983;51.084;11.086;2024-02-21T04:39:40;100412.78;;;7.65;86.65
84760;BME280;74983;51.084;11.086;2024-02-21T04:42:06;100409.38;;;7.65;86.33
84760;BME280;74983;51.084;11.086;2024-02-21T04:44:31;100405.00;;;7.65;86.64
84760;BME280;74983;51.084;11.086;2024-02-21T04:46:56;100401.50;;;7.66;86.77
84760;BME280;74983;51.084;11.086;2024-02-21T04:49:21;100402.50;;;7.64;86.50
84760;BME280;74983;51.084;11.086;2024-02-21T04:51:47;100400.81;;;7.63;86.54
84760;BME280;74983;51.084;11.086;2024-02-21T04:54:12;100399.91;;;7.64;86.82
84760;BME280;74983;51.084;11.086;2024-02-21T04:56:37;100400.91;;;7.61;86.90
84760;BME280;74983;51.084;11.086;2024-02-21T04:59:02;100394.47;;;7.53;87.08
84760;BME280;74983;51.084;11.086;2024-02-21T05:01:28;100387.06;;;7.45;86.65
84760;BME280;74983;51.084;11.086;2024-02-21T05:03:53;100381.81;;;7.47;86.72
84760;BME280;74983;51.084;11.086;2024-02-21T05:06:19;100369.63;;;7.49;86.69
84760;BME280;74983;51.084;11.086;2024-02-21T05:08:44;100365.69;;;7.57;86.44
84760;BME280;74983;51.084;11.086;2024-02-21T05:11:09;100357.53;;;7.65;86.25
84760;BME280;74983;51.084;11.086;2024-02-21T05:13:35;100351.59;;;7.78;84.88
84760;BME280;74983;51.084;11.086;2024-02-21T05:16:00;100347.16;;;7.80;85.10
84760;BME280;74983;51.084;11.086;2024-02-21T05:18:27;100352.53;;;7.77;84.86
84760;BME280;74983;51.084;11.086;2024-02-21T05:20:52;100345.16;;;7.85;83.88
84760;BME280;74983;51.084;11.086;2024-02-21T05:23:17;100350.16;;;7.88;85.40
84760;BME280;74983;51.084;11.086;2024-02-21T05:25:43;100352.94;;;7.85;85.57
84760;BME280;74983;51.084;11.086;2024-02-21T05:28:08;100354.75;;;7.83;85.65
84760;BME280;74983;51.084;11.086;2024-02-21T05:30:33;100347.75;;;7.85;85.95
84760;BME280;74983;51.084;11.086;2024-02-21T05:32:58;100338.03;;;7.73;86.47
84760;BME280;74983;51.084;11.086;2024-02-21T05:35:27;100333.84;;;7.71;85.83
84760;BME280;74983;51.084;11.086;2024-02-21T05:37:53;100338.31;;;7.84;85.06
84760;BME280;74983;51.084;11.086;2024-02-21T05:40:18;100345.16;;;7.85;84.64
84760;BME280;74983;51.084;11.086;2024-02-21T05:42:44;100339.78;;;7.88;84.92
84760;BME280;74983;51.084;11.086;2024-02-21T05:45:09;100338.31;;;7.84;85.01
84760;BME280;74983;51.084;11.086;2024-02-21T05:47:34;100340.97;;;7.83;85.42
84760;BME280;74983;51.084;11.086;2024-02-21T05:50:00;100342.81;;;7.81;85.25
84760;BME280;74983;51.084;11.086;2024-02-21T05:52:25;100334.78;;;7.85;84.80
84760;BME280;74983;51.084;11.086;2024-02-21T05:54:50;100325.06;;;7.89;85.27
84760;BME280;74983;51.084;11.086;2024-02-21T05:57:19;100325.00;;;7.90;85.01
84760;BME280;74983;51.084;11.086;2024-02-21T05:59:44;100330.25;;;7.89;85.49
84760;BME280;74983;51.084;11.086;2024-02-21T06:02:10;100317.47;;;7.86;85.51
84760;BME280;74983;51.084;11.086;2024-02-21T06:04:35;100315.28;;;7.94;85.10
84760;BME280;74983;51.084;11.086;2024-02-21T06:07:01;100319.88;;;7.89;85.77
84760;BME280;74983;51.084;11.086;2024-02-21T06:09:27;100325.84;;;7.91;85.40
84760;BME280;74983;51.084;11.086;2024-02-21T06:11:52;100313.78;;;7.90;85.35
84760;BME280;74983;51.084;11.086;2024-02-21T06:14:18;100318.88;;;7.91;85.51
84760;BME280;74983;51.084;11.086;2024-02-21T06:16:43;100317.97;;;7.92;85.34
84760;BME280;74983;51.084;11.086;2024-02-21T06:19:09;100323.16;;;7.92;86.06
84760;BME280;74983;51.084;11.086;2024-02-21T06:21:34;100330.25;;;7.89;85.80
84760;BME280;74983;51.084;11.086;2024-02-21T06:23:59;100321.41;;;7.93;85.90
84760;BME280;74983;51.084;11.086;2024-02-21T06:26:25;100329.69;;;7.99;85.42
84760;BME280;74983;51.084;11.086;2024-02-21T06:28:50;100329.69;;;7.99;85.65
84760;BME280;74983;51.084;11.086;2024-02-21T06:31:15;100338.34;;;7.98;85.72
84760;BME280;74983;51.084;11.086;2024-02-21T06:33:41;100352.44;;;7.94;85.91
84760;BME280;74983;51.084;11.086;2024-02-21T06:36:06;100353.03;;;7.99;85.53
84760;BME280;74983;51.084;11.086;2024-02-21T06:38:31;100351.19;;;8.02;85.23
84760;BME280;74983;51.084;11.086;2024-02-21T06:40:59;100350.91;;;8.06;84.57
84760;BME280;74983;51.084;11.086;2024-02-21T06:43:25;100354.34;;;8.07;84.47
84760;BME280;74983;51.084;11.086;2024-02-21T06:45:50;100368.06;;;8.09;85.06
84760;BME280;74983;51.084;11.086;2024-02-21T06:48:17;100361.28;;;8.06;84.78
84760;BME280;74983;51.084;11.086;2024-02-21T06:50:43;100354.19;;;8.10;84.46
84760;BME280;74983;51.084;11.086;2024-02-21T06:53:08;100357.53;;;8.12;84.07
84760;BME280;74983;51.084;11.086;2024-02-21T06:55:33;100374.84;;;8.11;84.38
84760;BME280;74983;51.084;11.086;2024-02-21T06:57:58;100368.97;;;8.08;85.40
84760;BME280;74983;51.084;11.086;2024-02-21T07:00:24;100354.19;;;8.10;84.28
84760;BME280;74983;51.084;11.086;2024-02-21T07:02:50;100345.50;;;8.11;84.67
84760;BME280;74983;51.084;11.086;2024-02-21T07:05:16;100338.03;;;8.05;85.58
84760;BME280;74983;51.084;11.086;2024-02-21T07:07:41;100326.22;;;8.15;83.86
84760;BME280;74983;51.084;11.086;2024-02-21T07:10:07;100330.50;;;8.16;84.29
84760;BME280;74983;51.084;11.086;2024-02-21T07:12:33;100327.16;;;8.14;84.42
84760;BME280;74983;51.084;11.086;2024-02-21T07:14:58;100322.63;;;8.17;84.26
84760;BME280;74983;51.084;11.086;2024-02-21T07:17:23;100324.47;;;8.15;84.25
84760;BME280;74983;51.084;11.086;2024-02-21T07:19:49;100323.22;;;8.07;85.16
84760;BME280;74983;51.084;11.086;2024-02-21T07:22:14;100332.53;;;8.11;85.10
84760;BME280;74983;51.084;11.086;2024-02-21T07:24:39;100343.88;;;8.08;85.21
84760;BME280;74983;51.084;11.086;2024-02-21T07:27:05;100343.22;;;8.05;84.85
84760;BME280;74983;51.084;11.086;2024-02-21T07:29:30;100342.13;;;8.09;85.18
84760;BME280;74983;51.084;11.086;2024-02-21T07:31:56;100339.03;;;8.02;86.30
84760;BME280;74983;51.084;11.086;2024-02-21T07:34:21;100337.38;;;8.01;85.98
84760;BME280;74983;51.084;11.086;2024-02-21T07:36:46;100341.47;;;8.05;85.05
84760;BME280;74983;51.084;11.086;2024-02-21T07:39:12;100341.47;;;8.05;84.86
84760;BME280;74983;51.084;11.086;2024-02-21T07:41:37;100338.03;;;8.05;84.47
84760;BME280;74983;51.084;11.086;2024-02-21T07:44:04;100342.91;;;8.11;85.12
84760;BME280;74983;51.084;11.086;2024-02-21T07:46:30;100338.63;;;8.10;85.17
84760;BME280;74983;51.084;11.086;2024-02-21T07:48:55;100344.16;;;8.04;85.04
84760;BME280;74983;51.084;11.086;2024-02-21T07:51:20;100336.44;;;8.02;85.91
84760;BME280;74983;51.084;11.086;2024-02-21T07:53:46;100336.38;;;8.04;84.39
84760;BME280;74983;51.084;11.086;2024-02-21T07:56:12;100348.31;;;8.06;84.80
84760;BME280;74983;51.084;11.086;2024-02-21T07:58:37;100341.72;;;8.00;85.41
84760;BME280;74983;51.084;11.086;2024-02-21T08:01:03;100354.34;;;8.07;84.90
84760;BME280;74983;51.084;11.086;2024-02-21T08:03:28;100349.84;;;8.10;85.12
84760;BME280;74983;51.084;11.086;2024-02-21T08:05:53;100352.44;;;8.10;84.90
84760;BME280;74983;51.084;11.086;2024-02-21T08:08:19;100345.31;;;8.14;84.47
84760;BME280;74983;51.084;11.086;2024-02-21T08:10:46;100340.22;;;8.12;84.29
84760;BME280;74983;51.084;11.086;2024-02-21T08:13:11;100333.09;;;8.16;84.30
84760;BME280;74983;51.084;11.086;2024-02-21T08:15:37;100335.41;;;8.20;84.03
84760;BME280;74983;51.084;11.086;2024-02-21T08:18:04;100333.44;;;8.25;83.30
84760;BME280;74983;51.084;11.086;2024-02-21T08:20:30;100335.59;;;8.33;83.46
84760;BME280;74983;51.084;11.086;2024-02-21T08:22:55;100323.09;;;8.39;84.02
84760;BME280;74983;51.084;11.086;2024-02-21T08:25:20;100323.44;;;8.49;82.57
84760;BME280;74983;51.084;11.086;2024-02-21T08:27:46;100314.72;;;8.50;82.54
84760;BME280;74983;51.084;11.086;2024-02-21T08:30:11;100314.63;;;8.51;82.40
84760;BME280;74983;51.084;11.086;2024-02-21T08:32:37;100324.16;;;8.51;83.15
84760;BME280;74983;51.084;11.086;2024-02-21T08:35:02;100326.94;;;8.48;82.72
84760;BME280;74983;51.084;11.086;2024-02-21T08:37:28;100323.34;;;8.50;82.48
84760;BME280;74983;51.084;11.086;2024-02-21T08:39:53;100314.44;;;8.54;81.63
84760;BME280;74983;51.084;11.086;2024-02-21T08:42:19;100320.66;;;8.52;81.47
84760;BME280;74983;51.084;11.086;2024-02-21T08:44:44;100323.06;;;8.55;82.66
84760;BME280;74983;51.084;11.086;2024-02-21T08:47:09;100321.31;;;8.55;82.75
84760;BME280;74983;51.084;11.086;2024-02-21T08:49:35;100310.84;;;8.57;81.43
84760;BME280;74983;51.084;11.086;2024-02-21T08:52:04;100319.38;;;8.59;81.53
84760;BME280;74983;51.084;11.086;2024-02-21T08:54:30;100320.22;;;8.59;81.80
84760;BME280;74983;51.084;11.086;2024-02-21T08:56:56;100316.50;;;8.63;81.67
84760;BME280;74983;51.084;11.086;2024-02-21T08:59:21;100309.47;;;8.65;81.20
84760;BME280;74983;51.084;11.086;2024-02-21T09:01:47;100298.72;;;8.71;81.75
84760;BME280;74983;51.084;11.086;2024-02-21T09:04:12;100302.00;;;8.75;81.85
84760;BME280;74983;51.084;11.086;2024-02-21T09:06:37;100297.44;;;8.78;81.86
84760;BME280;74983;51.084;11.086;2024-02-21T09:09:07;100297.81;;;8.86;81.85
84760;BME280;74983;51.084;11.086;2024-02-21T09:11:33;100289.09;;;8.87;80.98
84760;BME280;74983;51.084;11.086;2024-02-21T09:13:58;100282.03;;;8.89;81.13
84760;BME280;74983;51.084;11.086;2024-02-21T09:16:23;100279.09;;;8.95;81.33
84760;BME280;74983;51.084;11.086;2024-02-21T09:18:49;100279.09;;;8.95;82.25
84760;BME280;74983;51.084;11.086;2024-02-21T09:21:14;100270.66;;;9.06;80.90
84760;BME280;74983;51.084;11.086;2024-02-21T09:23:39;100266.22;;;9.08;81.37
84760;BME280;74983;51.084;11.086;2024-02-21T09:26:04;100258.47;;;9.21;81.24
84760;BME280;74983;51.084;11.086;2024-02-21T09:28:30;100261.00;;;9.22;81.40
84760;BME280;74983;51.084;11.086;2024-02-21T09:30:55;100257.47;;;9.23;81.80
84760;BME280;74983;51.084;11.086;2024-02-21T09:33:20;100263.22;;;9.28;81.36
84760;BME280;74983;51.084;11.086;2024-02-21T09:35:46;100257.25;;;9.26;81.63
84760;BME280;74983;51.084;11.086;2024-02-21T09:38:12;100249.56;;;9.25;80.63
84760;BME280;74983;51.084;11.086;2024-02-21T09:40:38;100256.72;;;9.21;81.41
84760;BME280;74983;51.084;11.086;2024-02-21T09:43:04;100252.72;;;9.16;81.05
84760;BME280;74983;51.084;11.086;2024-02-21T09:45:32;100251.25;;;9.12;81.19
84760;BME280;74983;51.084;11.086;2024-02-21T09:48:08;100257.28;;;9.12;81.79
84760;BME280;74983;51.084;11.086;2024-02-21T09:50:39;100254.22;;;9.20;81.94
84760;BME280;74983;51.084;11.086;2024-02-21T09:53:06;100248.72;;;9.24;81.64
84760;BME280;74983;51.084;11.086;2024-02-21T09:55:33;100253.91;;;9.24;80.96
84760;BME280;74983;51.084;11.086;2024-02-21T09:58:01;100248.56;;;9.27;81.24
84760;BME280;74983;51.084;11.086;2024-02-21T10:00:26;100240.22;;;9.22;80.96
84760;BME280;74983;51.084;11.086;2024-02-21T10:02:53;100244.75;;;9.19;81.85
84760;BME280;74983;51.084;11.086;2024-02-21T10:05:18;100228.69;;;9.26;80.18
84760;BME280;74983;51.084;11.086;2024-02-21T10:07:44;100232.03;;;9.28;80.58
84760;BME280;74983;51.084;11.086;2024-02-21T10:10:09;100228.56;;;9.42;80.72
84760;BME280;74983;51.084;11.086;2024-02-21T10:12:34;100233.19;;;9.51;81.15
84760;BME280;74983;51.084;11.086;2024-02-21T10:15:04;100233.09;;;9.52;79.85
84760;BME280;74983;51.084;11.086;2024-02-21T10:17:29;100226.44;;;9.48;81.03
84760;BME280;74983;51.084;11.086;2024-02-21T10:19:55;100227.09;;;9.38;80.34
84760;BME280;74983;51.084;11.086;2024-02-21T10:22:20;100233.13;;;9.38;81.13
84760;BME280;74983;51.084;11.086;2024-02-21T10:24:51;100230.78;;;9.48;80.75
84760;BME280;74983;51.084;11.086;2024-02-21T10:27:16;100232.41;;;9.63;81.47
84760;BME280;74983;51.084;11.086;2024-02-21T10:29:41;100221.72;;;9.67;80.31
84760;BME280;74983;51.084;11.086;2024-02-21T10:32:14;100222.38;;;9.83;80.54
84760;BME280;74983;51.084;11.086;2024-02-21T10:34:40;100213.88;;;9.94;79.80
84760;BME280;74983;51.084;11.086;2024-02-21T10:37:07;100212.13;;;9.94;79.93
84760;BME280;74983;51.084;11.086;2024-02-21T10:39:34;100214.25;;;10.02;79.51
84760;BME280;74983;51.084;11.086;2024-02-21T10:42:01;100212.44;;;10.02;79.60
84760;BME280;74983;51.084;11.086;2024-02-21T10:44:33;100207.81;;;10.07;78.82
84760;BME280;74983;51.084;11.086;2024-02-21T10:46:59;100201.94;;;10.18;78.51
84760;BME280;74983;51.084;11.086;2024-02-21T10:49:26;100208.81;;;10.32;78.92
84760;BME280;74983;51.084;11.086;2024-02-21T10:56:56;100188.38;;;10.76;76.03
84760;BME280;74983;51.084;11.086;2024-02-21T10:59:23;100192.13;;;10.97;76.72
84760;BME280;74983;51.084;11.086;2024-02-21T11:01:49;100181.66;;;11.09;76.02
84760;BME280;74983;51.084;11.086;2024-02-21T11:04:15;100173.84;;;11.09;74.51
84760;BME280;74983;51.084;11.086;2024-02-21T11:06:44;100163.66;;;11.30;74.03
84760;BME280;74983;51.084;11.086;2024-02-21T11:09:11;100153.66;;;11.37;72.89
84760;BME280;74983;51.084;11.086;2024-02-21T11:11:40;100156.56;;;11.32;72.89
84760;BME280;74983;51.084;11.086;2024-02-21T11:14:20;100136.81;;;11.77;71.13
84760;BME280;74983;51.084;11.086;2024-02-21T11:16:46;100130.06;;;11.85;70.90
84760;BME280;74983;51.084;11.086;2024-02-21T11:19:22;100118.75;;;12.41;69.03
84760;BME280;74983;51.084;11.086;2024-02-21T11:21:48;100103.22;;;12.62;66.82
84760;BME280;74983;51.084;11.086;2024-02-21T11:24:13;100103.19;;;12.73;66.79
84760;BME280;74983;51.084;11.086;2024-02-21T11:26:40;100087.88;;;12.80;66.32
84760;BME280;74983;51.084;11.086;2024-02-21T11:29:07;100092.25;;;12.90;66.96
84760;BME280;74983;51.084;11.086;2024-02-21T11:31:41;100089.06;;;12.65;68.52
84760;BME280;74983;51.084;11.086;2024-02-21T11:34:10;100085.41;;;12.56;67.68
84760;BME280;74983;51.084;11.086;2024-02-21T11:36:39;100076.47;;;12.92;65.66
84760;BME280;74983;51.084;11.086;2024-02-21T11:39:10;100073.91;;;12.59;65.46
84760;BME280;74983;51.084;11.086;2024-02-21T11:41:36;100066.72;;;12.83;66.19
84760;BME280;74983;51.084;11.086;2024-02-21T11:44:01;100069.81;;;12.77;66.93
84760;BME280;74983;51.084;11.086;2024-02-21T11:46:26;100064.72;;;12.75;66.47
84760;BME280;74983;51.084;11.086;2024-02-21T11:48:51;100064.84;;;12.63;66.45
84760;BME280;74983;51.084;11.086;2024-02-21T11:51:26;100057.59;;;12.66;66.48
84760;BME280;74983;51.084;11.086;2024-02-21T11:53:52;100053.09;;;12.68;66.25
84760;BME280;74983;51.084;11.086;2024-02-21T11:56:18;100054.06;;;12.56;67.22
84760;BME280;74983;51.084;11.086;2024-02-21T11:58:46;100033.94;;;12.90;65.75
84760;BME280;74983;51.084;11.086;2024-02-21T12:01:12;100035.06;;;13.08;64.41
84760;BME280;74983;51.084;11.086;2024-02-21T12:03:38;100022.16;;;12.84;64.70
84760;BME280;74983;51.084;11.086;2024-02-21T12:06:03;100008.19;;;12.74;64.00
84760;BME280;74983;51.084;11.086;2024-02-21T12:08:43;100009.25;;;12.61;64.07
84760;BME280;74983;51.084;11.086;2024-02-21T12:11:18;100009.75;;;12.55;62.40
84760;BME280;74983;51.084;11.086;2024-02-21T12:13:44;99996.91;;;12.63;63.74
84760;BME280;74983;51.084;11.086;2024-02-21T12:16:10;99995.47;;;12.70;63.99
84760;BME280;74983;51.084;11.086;2024-02-21T12:18:36;99988.72;;;12.67;63.37
84760;BME280;74983;51.084;11.086;2024-02-21T12:21:01;99985.72;;;12.72;63.74
84760;BME280;74983;51.084;11.086;2024-02-21T12:23:27;99967.69;;;12.69;63.11
84760;BME280;74983;51.084;11.086;2024-02-21T12:25:52;99972.31;;;12.65;64.37
84760;BME280;74983;51.084;11.086;2024-02-21T12:28:20;99967.63;;;12.48;63.66
84760;BME280;74983;51.084;11.086;2024-02-21T12:30:47;99965.22;;;12.45;62.35
84760;BME280;74983;51.084;11.086;2024-02-21T12:33:12;99957.66;;;12.42;63.40
84760;BME280;74983;51.084;11.086;2024-02-21T12:35:39;99961.31;;;12.51;63.06
84760;BME280;74983;51.084;11.086;2024-02-21T12:38:04;99954.66;;;12.46;64.04
84760;BME280;74983;51.084;11.086;2024-02-21T12:40:30;99949.56;;;12.45;62.19
84760;BME280;74983;51.084;11.086;2024-02-21T12:42:59;99946.94;;;12.45;64.24
84760;BME280;74983;51.084;11.086;2024-02-21T12:45:25;99935.22;;;12.39;63.45